createdAt,value
2023-03-27T00:01:17.968Z,6.60
2023-03-27T00:03:51.946Z,6.60
2023-03-27T00:06:25.157Z,6.60
2023-03-27T00:08:57.409Z,6.60
2023-03-27T00:11:29.399Z,6.60
2023-03-27T00:14:01.585Z,6.60
2023-03-27T00:16:33.951Z,6.60
2023-03-27T00:19:09.799Z,6.60
2023-03-27T00:21:41.921Z,6.60
2023-03-27T00:24:14.264Z,6.60
2023-03-27T00:26:46.256Z,6.60
2023-03-27T00:29:18.891Z,6.60
2023-03-27T00:31:50.958Z,6.60
2023-03-27T00:34:22.920Z,6.60
2023-03-27T00:36:54.948Z,6.50
2023-03-27T00:39:27.895Z,6.50
2023-03-27T00:42:00.406Z,6.50
2023-03-27T00:44:34.388Z,6.50
2023-03-27T00:47:09.394Z,6.50
2023-03-27T00:49:41.825Z,6.50
2023-03-27T00:52:16.795Z,6.50
2023-03-27T00:54:49.197Z,6.40
2023-03-27T00:57:22.169Z,6.40
2023-03-27T00:59:57.331Z,6.40
2023-03-27T01:02:29.389Z,6.40
2023-03-27T01:05:05.513Z,6.50
2023-03-27T01:07:41.418Z,6.50
2023-03-27T01:10:50.902Z,6.50
2023-03-27T01:14:11.232Z,6.40
2023-03-27T01:17:06.724Z,6.40
2023-03-27T01:20:01.151Z,6.40
2023-03-27T01:22:58.329Z,6.40
2023-03-27T01:25:53.758Z,6.40
2023-03-27T01:29:03.633Z,6.40
2023-03-27T01:32:20.126Z,6.40
2023-03-27T01:35:13.898Z,6.40
2023-03-27T01:38:07.583Z,6.40
2023-03-27T01:40:50.594Z,6.40
2023-03-27T01:44:03.530Z,6.40
2023-03-27T01:46:56.673Z,6.40
2023-03-27T01:49:40.724Z,6.50
2023-03-27T01:52:25.033Z,6.50
2023-03-27T01:55:05.442Z,6.50
2023-03-27T01:58:00.812Z,6.50
2023-03-27T02:00:51.006Z,6.60
2023-03-27T02:03:41.675Z,6.50
2023-03-27T02:06:26.198Z,6.50
2023-03-27T02:09:18.063Z,6.50
2023-03-27T02:12:06.113Z,6.40
2023-03-27T02:15:23.949Z,6.40
2023-03-27T02:18:10.487Z,6.40
2023-03-27T02:20:42.644Z,6.40
2023-03-27T02:23:15.025Z,6.40
2023-03-27T02:25:47.163Z,6.40
2023-03-27T02:28:41.282Z,6.40
2023-03-27T02:31:33.763Z,6.40
2023-03-27T02:34:22.146Z,6.40
2023-03-27T02:37:49.788Z,6.40
2023-03-27T02:40:33.223Z,6.40
2023-03-27T02:43:37.814Z,6.30
2023-03-27T02:46:40.295Z,6.30
2023-03-27T02:49:28.615Z,6.20
2023-03-27T02:52:45.552Z,6.20
2023-03-27T02:55:33.307Z,6.20
2023-03-27T02:58:47.429Z,6.10
2023-03-27T03:01:22.433Z,6.10
2023-03-27T03:04:18.764Z,6.10
2023-03-27T03:06:51.235Z,6.00
2023-03-27T03:09:25.450Z,6.00
2023-03-27T03:11:58.097Z,6.00
2023-03-27T03:14:36.834Z,6.00
2023-03-27T03:17:08.888Z,6.00
2023-03-27T03:19:41.374Z,6.00
2023-03-27T03:22:14.775Z,5.90
2023-03-27T03:24:46.746Z,6.00
2023-03-27T03:27:22.584Z,5.90
2023-03-27T03:29:56.785Z,5.90
2023-03-27T03:32:30.521Z,5.90
2023-03-27T03:35:03.001Z,5.90
2023-03-27T03:37:38.426Z,5.90
2023-03-27T03:40:12.061Z,5.80
2023-03-27T03:42:49.688Z,5.80
2023-03-27T03:45:21.750Z,5.70
2023-03-27T03:47:54.067Z,5.70
2023-03-27T03:50:26.647Z,5.70
2023-03-27T03:52:58.580Z,5.60
2023-03-27T03:55:30.638Z,5.60
2023-03-27T03:58:02.919Z,5.50
2023-03-27T04:00:38.236Z,5.50
2023-03-27T04:03:10.727Z,5.50
2023-03-27T04:05:43.082Z,5.50
2023-03-27T04:08:15.177Z,5.50
2023-03-27T04:10:48.806Z,5.60
2023-03-27T04:13:24.531Z,5.60
2023-03-27T04:15:56.811Z,5.60
2023-03-27T04:18:35.635Z,5.60
2023-03-27T04:21:16.501Z,5.60
2023-03-27T04:23:48.695Z,5.70
2023-03-27T04:26:26.445Z,5.70
2023-03-27T04:28:58.775Z,5.70
2023-03-27T04:31:34.469Z,5.60
2023-03-27T04:34:08.607Z,5.60
2023-03-27T04:36:40.663Z,5.60
2023-03-27T04:39:13.326Z,5.60
2023-03-27T04:41:49.460Z,5.50
2023-03-27T04:44:21.537Z,5.60
2023-03-27T04:46:53.731Z,5.50
2023-03-27T04:49:25.722Z,5.50
2023-03-27T04:51:57.728Z,5.40
2023-03-27T04:54:31.983Z,5.40
2023-03-27T04:57:06.149Z,5.40
2023-03-27T04:59:38.263Z,5.30
2023-03-27T05:02:11.074Z,5.30
2023-03-27T05:04:43.102Z,5.30
2023-03-27T05:07:20.123Z,5.20
2023-03-27T05:09:52.674Z,5.20
2023-03-27T05:12:24.838Z,5.20
2023-03-27T05:14:56.808Z,5.30
2023-03-27T05:17:28.817Z,5.30
2023-03-27T05:20:00.867Z,5.30
2023-03-27T05:22:32.925Z,5.40
2023-03-27T05:25:06.453Z,5.40
2023-03-27T05:27:40.187Z,5.40
2023-03-27T05:30:16.120Z,5.40
2023-03-27T05:32:52.114Z,5.50
2023-03-27T05:35:26.376Z,5.50
2023-03-27T05:37:59.083Z,5.50
2023-03-27T05:40:35.003Z,5.50
2023-03-27T05:43:07.538Z,5.50
2023-03-27T05:45:39.564Z,5.50
2023-03-27T05:48:14.704Z,5.50
2023-03-27T05:50:46.741Z,5.50
2023-03-27T05:53:18.820Z,5.40
2023-03-27T05:55:50.909Z,5.50
2023-03-27T05:58:38.869Z,5.50
2023-03-27T06:01:11.251Z,5.50
2023-03-27T06:03:43.449Z,5.50
2023-03-27T06:06:15.686Z,5.50
2023-03-27T06:08:47.998Z,5.60
2023-03-27T06:11:20.332Z,5.60
2023-03-27T06:13:52.405Z,5.60
2023-03-27T06:16:24.584Z,5.70
2023-03-27T06:18:56.617Z,5.70
2023-03-27T06:21:28.634Z,5.70
2023-03-27T06:24:00.896Z,5.80
2023-03-27T06:26:32.956Z,5.80
2023-03-27T06:29:07.966Z,5.80
2023-03-27T06:31:40.768Z,5.80
2023-03-27T06:34:15.170Z,5.70
2023-03-27T06:36:47.450Z,5.70
2023-03-27T06:39:19.630Z,5.60
2023-03-27T06:41:51.917Z,5.60
2023-03-27T06:44:24.158Z,5.60
2023-03-27T06:46:57.286Z,5.50
2023-03-27T06:49:29.634Z,5.50
2023-03-27T06:52:01.686Z,5.50
2023-03-27T06:54:33.979Z,5.50
2023-03-27T06:57:09.156Z,5.60
2023-03-27T06:59:41.689Z,5.80
2023-03-27T07:02:13.850Z,5.90
2023-03-27T07:04:54.145Z,6.10
2023-03-27T07:07:34.662Z,6.20
2023-03-27T07:10:37.342Z,6.40
2023-03-27T07:13:16.268Z,6.60
2023-03-27T07:15:49.081Z,6.70
2023-03-27T07:18:22.875Z,6.90
2023-03-27T07:20:59.324Z,7.10
2023-03-27T07:23:41.028Z,7.20
2023-03-27T07:26:13.525Z,7.20
2023-03-27T07:28:51.597Z,7.30
2023-03-27T07:31:40.280Z,7.50
2023-03-27T07:34:19.842Z,7.70
2023-03-27T07:37:00.654Z,7.80
2023-03-27T07:39:35.510Z,7.80
2023-03-27T07:42:10.976Z,7.90
2023-03-27T07:44:49.137Z,8.00
2023-03-27T07:47:25.832Z,8.10
2023-03-27T07:50:02.121Z,8.30
2023-03-27T07:52:43.822Z,8.40
2023-03-27T07:55:22.422Z,8.70
2023-03-27T07:58:03.185Z,8.80
2023-03-27T08:00:37.634Z,8.90
2023-03-27T08:03:21.063Z,9.00
2023-03-27T08:06:00.144Z,9.00
2023-03-27T08:08:33.891Z,9.10
2023-03-27T08:11:19.751Z,9.20
2023-03-27T08:14:00.122Z,9.40
2023-03-27T08:16:32.505Z,9.50
2023-03-27T08:19:06.395Z,9.60
2023-03-27T08:21:43.633Z,9.70
2023-03-27T08:24:15.926Z,9.70
2023-03-27T08:26:48.229Z,9.80
2023-03-27T08:29:25.108Z,9.80
2023-03-27T08:32:03.069Z,9.80
2023-03-27T08:34:35.893Z,9.80
2023-03-27T08:37:12.208Z,9.80
2023-03-27T08:39:46.791Z,9.70
2023-03-27T08:42:27.432Z,9.70
2023-03-27T08:45:16.328Z,9.50
2023-03-27T08:48:15.753Z,9.20
2023-03-27T08:51:37.338Z,8.90
2023-03-27T08:54:21.860Z,8.90
2023-03-27T08:57:07.934Z,9.10
2023-03-27T08:59:43.125Z,9.20
2023-03-27T09:02:50.832Z,9.30
2023-03-27T09:05:37.854Z,9.50
2023-03-27T09:09:00.583Z,9.80
2023-03-27T09:12:09.320Z,10.00
2023-03-27T09:14:56.790Z,10.40
2023-03-27T09:18:03.249Z,10.60
2023-03-27T09:20:43.938Z,10.60
2023-03-27T09:23:43.036Z,10.60
2023-03-27T09:26:32.482Z,10.60
2023-03-27T09:29:22.801Z,10.60
2023-03-27T09:31:59.217Z,10.80
2023-03-27T09:34:40.132Z,10.90
2023-03-27T09:37:17.972Z,10.90
2023-03-27T09:39:56.668Z,11.00
2023-03-27T09:42:40.896Z,10.70
2023-03-27T09:45:14.660Z,10.30
2023-03-27T09:48:06.124Z,9.80
2023-03-27T09:50:49.326Z,9.40
2023-03-27T09:53:23.541Z,9.10
2023-03-27T09:56:07.465Z,8.90
2023-03-27T09:58:49.232Z,8.90
2023-03-27T10:01:39.985Z,8.90
2023-03-27T10:04:20.575Z,8.90
2023-03-27T10:07:13.430Z,8.90
2023-03-27T10:10:12.257Z,9.00
2023-03-27T10:13:02.508Z,9.10
2023-03-27T10:15:45.889Z,9.20
2023-03-27T10:18:29.881Z,9.20
2023-03-27T10:21:11.272Z,9.20
2023-03-27T10:23:52.912Z,9.30
2023-03-27T10:26:31.483Z,9.30
2023-03-27T10:29:28.415Z,9.50
2023-03-27T10:32:05.102Z,9.80
2023-03-27T10:34:58.304Z,10.20
2023-03-27T10:37:36.243Z,10.40
2023-03-27T10:40:25.582Z,10.60
2023-03-27T10:43:20.455Z,11.00
2023-03-27T10:46:01.279Z,11.30
2023-03-27T10:48:57.994Z,11.50
2023-03-27T10:51:48.817Z,11.80
2023-03-27T10:54:34.584Z,12.10
2023-03-27T10:57:27.815Z,12.10
2023-03-27T11:00:32.783Z,12.10
2023-03-27T11:03:33.629Z,12.30
2023-03-27T11:06:16.727Z,12.50
2023-03-27T11:09:06.108Z,12.50
2023-03-27T11:11:56.756Z,12.10
2023-03-27T11:14:50.504Z,11.60
2023-03-27T11:17:32.337Z,11.00
2023-03-27T11:20:26.637Z,10.30
2023-03-27T11:23:28.881Z,9.60
2023-03-27T11:26:09.344Z,9.00
2023-03-27T11:29:37.906Z,8.60
2023-03-27T11:32:49.856Z,8.50
2023-03-27T11:35:34.949Z,8.50
2023-03-27T11:38:33.017Z,8.60
2023-03-27T11:41:08.483Z,9.00
2023-03-27T11:43:41.022Z,9.40
2023-03-27T11:46:41.066Z,9.80
2023-03-27T11:49:22.073Z,10.20
2023-03-27T11:52:20.665Z,10.60
2023-03-27T11:55:34.125Z,10.90
2023-03-27T11:58:42.339Z,11.10
2023-03-27T12:01:37.858Z,11.20
2023-03-27T12:05:16.978Z,11.30
2023-03-27T12:08:46.016Z,11.60
2023-03-27T12:11:28.986Z,11.80
2023-03-27T12:14:50.210Z,12.00
2023-03-27T12:17:56.976Z,12.00
2023-03-27T12:21:30.341Z,11.80
2023-03-27T12:24:34.600Z,11.60
2023-03-27T12:27:45.313Z,11.50
2023-03-27T12:30:52.765Z,11.50
2023-03-27T12:34:01.314Z,11.50
2023-03-27T12:36:51.192Z,11.60
2023-03-27T12:39:30.122Z,11.60
2023-03-27T12:42:15.206Z,11.20
2023-03-27T12:45:29.377Z,10.70
2023-03-27T12:48:14.077Z,10.20
2023-03-27T12:50:59.280Z,9.70
2023-03-27T12:53:34.506Z,9.50
2023-03-27T12:56:29.039Z,9.30
2023-03-27T12:59:10.277Z,9.40
2023-03-27T13:02:00.342Z,9.70
2023-03-27T13:05:28.374Z,10.00
2023-03-27T13:08:32.433Z,10.40
2023-03-27T13:11:44.273Z,10.80
2023-03-27T13:14:52.134Z,11.10
2023-03-27T13:17:55.916Z,11.40
2023-03-27T13:21:01.715Z,11.70
2023-03-27T13:23:59.687Z,11.90
2023-03-27T13:27:12.226Z,12.10
2023-03-27T13:29:52.441Z,12.00
2023-03-27T13:32:39.246Z,11.70
2023-03-27T13:35:41.214Z,11.40
2023-03-27T13:38:14.850Z,11.30
2023-03-27T13:40:49.796Z,11.50
2023-03-27T13:43:28.168Z,11.80
2023-03-27T13:46:08.055Z,12.00
2023-03-27T13:49:17.316Z,12.20
2023-03-27T13:52:11.061Z,12.30
2023-03-27T13:55:19.773Z,12.30
2023-03-27T13:58:43.607Z,12.30
2023-03-27T14:01:34.301Z,12.20
2023-03-27T14:04:57.732Z,12.00
2023-03-27T14:07:52.577Z,11.90
2023-03-27T14:10:44.125Z,12.00
2023-03-27T14:13:53.512Z,11.90
2023-03-27T14:16:40.749Z,11.70
2023-03-27T14:20:08.060Z,11.70
2023-03-27T14:22:53.439Z,11.80
2023-03-27T14:25:36.546Z,12.00
2023-03-27T14:28:29.218Z,12.00
2023-03-27T14:31:07.428Z,11.90
2023-03-27T14:34:03.053Z,11.80
2023-03-27T14:36:42.020Z,11.70
2023-03-27T14:39:22.247Z,11.90
2023-03-27T14:42:02.135Z,12.20
2023-03-27T14:44:35.928Z,12.40
2023-03-27T14:47:15.336Z,12.60
2023-03-27T14:49:53.950Z,12.40
2023-03-27T14:52:35.436Z,12.20
2023-03-27T14:55:15.297Z,11.90
2023-03-27T14:57:56.770Z,11.70
2023-03-27T15:00:40.490Z,11.60
2023-03-27T15:03:21.728Z,11.70
2023-03-27T15:06:21.109Z,11.80
2023-03-27T15:08:59.656Z,12.00
2023-03-27T15:11:40.107Z,12.00
2023-03-27T15:14:20.753Z,11.90
2023-03-27T15:17:17.999Z,11.70
2023-03-27T15:20:14.529Z,11.50
2023-03-27T15:23:02.727Z,11.30
2023-03-27T15:25:50.023Z,11.20
2023-03-27T15:28:33.998Z,11.10
2023-03-27T15:31:10.059Z,11.20
2023-03-27T15:33:52.998Z,11.40
2023-03-27T15:36:28.675Z,11.60
2023-03-27T15:39:04.923Z,11.70
2023-03-27T15:41:43.810Z,11.80
2023-03-27T15:44:24.294Z,11.80
2023-03-27T15:46:59.468Z,11.80
2023-03-27T15:49:38.976Z,11.90
2023-03-27T15:52:32.615Z,12.10
2023-03-27T15:55:08.042Z,12.10
2023-03-27T15:57:41.088Z,12.10
2023-03-27T16:00:14.909Z,12.00
2023-03-27T16:02:49.003Z,11.80
2023-03-27T16:05:21.220Z,11.70
2023-03-27T16:07:53.542Z,11.70
2023-03-27T16:10:34.097Z,11.80
2023-03-27T16:13:25.184Z,11.80
2023-03-27T16:16:01.314Z,11.80
2023-03-27T16:18:36.866Z,11.70
2023-03-27T16:21:13.957Z,11.50
2023-03-27T16:23:46.475Z,11.30
2023-03-27T16:26:31.738Z,11.20
2023-03-27T16:29:05.528Z,11.10
2023-03-27T16:31:37.853Z,11.00
2023-03-27T16:34:12.676Z,11.10
2023-03-27T16:36:56.142Z,11.20
2023-03-27T16:39:28.219Z,11.30
2023-03-27T16:42:00.390Z,11.40
2023-03-27T16:44:35.128Z,11.30
2023-03-27T16:47:07.302Z,11.30
2023-03-27T16:49:40.314Z,11.30
2023-03-27T16:52:12.373Z,11.30
2023-03-27T16:54:44.335Z,11.40
2023-03-27T16:57:17.328Z,11.40
2023-03-27T16:59:49.365Z,11.50
2023-03-27T17:02:21.474Z,11.60
2023-03-27T17:04:53.560Z,11.70
2023-03-27T17:07:27.559Z,11.80
2023-03-27T17:10:03.455Z,11.90
2023-03-27T17:12:35.514Z,11.90
2023-03-27T17:15:08.839Z,11.80
2023-03-27T17:17:41.022Z,11.50
2023-03-27T17:20:13.473Z,11.10
2023-03-27T17:22:48.127Z,11.00
2023-03-27T17:25:20.147Z,11.00
2023-03-27T17:28:31.134Z,10.90
2023-03-27T17:31:11.772Z,10.70
2023-03-27T17:33:43.790Z,10.30
2023-03-27T17:36:26.695Z,10.10
2023-03-27T17:39:05.920Z,9.90
2023-03-27T17:41:38.059Z,9.70
2023-03-27T17:44:12.697Z,9.60
2023-03-27T17:46:44.754Z,9.60
2023-03-27T17:49:16.862Z,9.50
2023-03-27T17:51:51.895Z,9.40
2023-03-27T17:54:24.267Z,9.40
2023-03-27T17:56:59.290Z,9.30
2023-03-27T17:59:31.986Z,9.20
2023-03-27T18:02:06.759Z,9.20
2023-03-27T18:04:38.872Z,9.10
2023-03-27T18:07:14.247Z,9.00
2023-03-27T18:09:46.602Z,8.90
2023-03-27T18:12:22.461Z,8.90
2023-03-27T18:14:56.797Z,8.80
2023-03-27T18:17:28.919Z,8.80
2023-03-27T18:20:01.786Z,8.70
2023-03-27T18:22:37.069Z,8.70
2023-03-27T18:25:13.308Z,8.70
2023-03-27T18:27:45.935Z,8.70
2023-03-27T18:30:19.028Z,8.70
2023-03-27T18:32:51.503Z,8.60
2023-03-27T18:35:23.481Z,8.60
2023-03-27T18:37:58.487Z,8.50
2023-03-27T18:40:33.471Z,8.40
2023-03-27T18:43:05.889Z,8.30
2023-03-27T18:45:37.876Z,8.30
2023-03-27T18:48:10.365Z,8.30
2023-03-27T18:50:42.509Z,8.20
2023-03-27T18:53:14.948Z,8.20
2023-03-27T18:55:50.963Z,8.20
2023-03-27T18:58:24.440Z,8.20
2023-03-27T19:00:57.446Z,8.10
2023-03-27T19:03:36.347Z,8.10
2023-03-27T19:06:11.882Z,8.10
2023-03-27T19:08:45.451Z,8.10
2023-03-27T19:11:18.097Z,8.10
2023-03-27T19:13:50.023Z,8.00
2023-03-27T19:16:22.177Z,8.00
2023-03-27T19:18:56.428Z,8.00
2023-03-27T19:21:28.462Z,8.00
2023-03-27T19:24:00.471Z,8.00
2023-03-27T19:26:34.462Z,8.00
2023-03-27T19:29:06.654Z,8.00
2023-03-27T19:31:39.013Z,8.00
2023-03-27T19:34:11.115Z,7.90
2023-03-27T19:36:43.334Z,7.90
2023-03-27T19:39:15.705Z,7.80
2023-03-27T19:41:49.351Z,7.70
2023-03-27T19:44:21.434Z,7.70
2023-03-27T19:46:53.684Z,7.70
2023-03-27T19:49:26.580Z,7.70
2023-03-27T19:51:58.762Z,7.60
2023-03-27T19:54:31.419Z,7.60
2023-03-27T19:57:03.662Z,7.50
2023-03-27T19:59:35.747Z,7.50
2023-03-27T20:02:09.734Z,7.50
2023-03-27T20:04:41.929Z,7.40
2023-03-27T20:07:14.045Z,7.40
2023-03-27T20:09:46.230Z,7.40
2023-03-27T20:12:22.496Z,7.30
2023-03-27T20:15:07.549Z,7.30
2023-03-27T20:17:44.050Z,7.30
2023-03-27T20:20:16.578Z,7.30
2023-03-27T20:25:23.884Z,7.30
2023-03-27T20:28:06.722Z,7.30
2023-03-27T20:30:40.416Z,7.20
2023-03-27T20:33:12.426Z,7.20
2023-03-27T20:35:44.861Z,7.10
2023-03-27T20:38:18.120Z,7.10
2023-03-27T20:40:56.844Z,7.10
2023-03-27T20:43:31.024Z,7.10
2023-03-27T20:46:05.327Z,7.10
2023-03-27T20:48:41.643Z,7.00
2023-03-27T20:51:16.144Z,7.00
2023-03-27T20:53:58.269Z,7.00
2023-03-27T20:56:30.745Z,7.00
2023-03-27T20:59:02.709Z,7.00
2023-03-27T21:01:38.862Z,6.90
2023-03-27T21:04:15.409Z,6.90
2023-03-27T21:06:47.558Z,6.90
2023-03-27T21:09:19.499Z,6.80
2023-03-27T21:11:51.625Z,6.80
2023-03-27T21:14:24.127Z,6.80
2023-03-27T21:16:56.827Z,6.80
2023-03-27T21:19:28.959Z,6.70
2023-03-27T21:22:01.053Z,6.70
2023-03-27T21:24:32.989Z,6.70
2023-03-27T21:27:05.433Z,6.70
2023-03-27T21:29:37.777Z,6.60
2023-03-27T21:32:10.478Z,6.60
2023-03-27T21:34:42.821Z,6.50
2023-03-27T21:37:15.040Z,6.50
2023-03-27T21:39:47.143Z,6.50
2023-03-27T21:42:21.749Z,6.50
2023-03-27T21:44:56.521Z,6.50
2023-03-27T21:47:40.916Z,6.50
2023-03-27T21:50:19.356Z,6.50
2023-03-27T21:52:51.380Z,6.40
2023-03-27T21:55:23.895Z,6.40
2023-03-27T21:57:56.523Z,6.40
2023-03-27T22:00:28.579Z,6.40
2023-03-27T22:03:00.623Z,6.30
2023-03-27T22:05:37.890Z,6.30
2023-03-27T22:08:10.008Z,6.30
2023-03-27T22:10:41.998Z,6.30
2023-03-27T22:13:13.987Z,6.30
2023-03-27T22:15:46.039Z,6.20
2023-03-27T22:18:18.088Z,6.20
2023-03-27T22:20:50.257Z,6.20
2023-03-27T22:23:22.169Z,6.10
2023-03-27T22:25:55.739Z,6.00
2023-03-27T22:28:29.581Z,6.00
2023-03-27T22:31:01.703Z,6.00
2023-03-27T22:33:33.941Z,6.00
2023-03-27T22:36:13.413Z,5.90
2023-03-27T22:38:46.564Z,5.90
2023-03-27T22:41:18.949Z,5.90
2023-03-27T22:43:50.968Z,5.90
2023-03-27T22:46:24.235Z,5.90
2023-03-27T22:48:59.045Z,5.90
2023-03-27T22:51:31.390Z,5.80
2023-03-27T22:54:03.461Z,5.80
2023-03-27T22:56:35.696Z,5.80
2023-03-27T22:59:08.944Z,5.80
2023-03-27T23:01:43.624Z,5.70
2023-03-27T23:04:15.571Z,5.70
2023-03-27T23:06:48.261Z,5.70
2023-03-27T23:09:20.476Z,5.70
2023-03-27T23:11:52.502Z,5.70
2023-03-27T23:14:24.471Z,5.70
2023-03-27T23:16:56.584Z,5.60
2023-03-27T23:19:28.726Z,5.60
2023-03-27T23:22:01.857Z,5.60
2023-03-27T23:24:33.769Z,5.50
2023-03-27T23:27:08.511Z,5.50
2023-03-27T23:29:43.320Z,5.40
2023-03-27T23:32:15.516Z,5.40
2023-03-27T23:34:47.511Z,5.30
2023-03-27T23:37:19.462Z,5.30
2023-03-27T23:39:51.401Z,5.30
2023-03-27T23:42:23.418Z,5.30
2023-03-27T23:44:56.191Z,5.30
2023-03-27T23:47:28.218Z,5.20
2023-03-27T23:50:00.385Z,5.20
2023-03-27T23:52:32.349Z,5.10
2023-03-27T23:55:04.794Z,5.10
2023-03-27T23:57:36.788Z,5.10
